»·PEaware :: N850VJ KIZA-KMRY

N850VJ :: KIZA-KMRY

FLIGHT INFORMATION

Flight Status: Arrived
Operator: Privately registered:
United States
More flights under this callsign
Pilot: Andrew J. (13363)
Aircraft: Unknown
(TBM9)
More flights by this aircraft type
Origin: KIZA Santa Ynez
United States
Destination: KMRY Monterey Peninsula
United States
More flights between these airports :: More routes between these airports
Route: ORCUT V27 CARME
File this flight plan on PilotEdge
Remarks:
Altitude:
(Current/Filed)
24,000ft
Speed:
(Current/Filed)
310kts
Departed: 10-Feb-18 10:15 PM
Arrived: 10-Feb-18 11:05 PM
Distance/Time
Traveled:
147nm/0:50
Distance/Time
To Go:
Arrived

Flight Plot

Page will automatically refresh every two minutes.


Map Options




Map Legend


Flown Route
Filed Route
Departure Airport
Arrival Airport
Navaid (VOR, NDB)
Fix

Horizontal Profiles

Position Reports

Time Latitude Longitude Heading Altitude Ground
Speed
10-Feb-18 22:21 34.607232 -120.079222 273 665ft 109kts
10-Feb-18 22:22 34.628209 -120.111843 314 2465ft 145kts
10-Feb-18 22:23 34.657333 -120.147529 314 4446ft 153kts
10-Feb-18 22:24 34.688804 -120.183211 320 6573ft 158kts
10-Feb-18 22:25 34.722328 -120.217441 321 8609ft 163kts
10-Feb-18 22:26 34.754050 -120.250000 324 11052ft 142kts
10-Feb-18 22:27 34.784632 -120.281083 323 12895ft 146kts
10-Feb-18 22:28 34.815544 -120.312503 322 14568ft 148kts
10-Feb-18 22:29 34.847160 -120.344674 322 16080ft 150kts
10-Feb-18 22:30 34.879201 -120.377319 321 17475ft 155kts
10-Feb-18 22:31 34.912181 -120.410951 320 19479ft 155kts
10-Feb-18 22:32 34.945607 -120.445107 320 21194ft 160kts
10-Feb-18 22:33 34.980042 -120.480338 320 22723ft 164kts
10-Feb-18 22:34 35.015812 -120.516957 320 23978ft 183kts
10-Feb-18 22:35 35.060895 -120.563351 323 23977ft 232kts
10-Feb-18 22:36 35.112044 -120.615733 323 23974ft 249kts
10-Feb-18 22:37 35.162812 -120.667817 322 23948ft 257kts
10-Feb-18 22:38 35.217862 -120.724411 322 23945ft 260kts
10-Feb-18 22:39 35.268695 -120.786540 312 23946ft 264kts
10-Feb-18 22:40 35.314133 -120.857308 312 23943ft 265kts
10-Feb-18 22:41 35.359500 -120.928159 312 23942ft 265kts
10-Feb-18 22:42 35.404751 -120.999019 312 23943ft 265kts
10-Feb-18 22:43 35.449988 -121.070044 312 23964ft 265kts
10-Feb-18 22:44 35.495377 -121.141474 312 23966ft 265kts
10-Feb-18 22:45 35.540467 -121.212609 312 23966ft 265kts
10-Feb-18 22:46 35.585671 -121.284091 312 23965ft 265kts
10-Feb-18 22:47 35.631862 -121.354154 328 23941ft 261kts
10-Feb-18 22:48 35.697901 -121.389214 337 23964ft 259kts
10-Feb-18 22:49 35.765790 -121.424637 337 22934ft 276kts
10-Feb-18 22:50 35.836674 -121.461642 337 20924ft 278kts
10-Feb-18 22:51 35.907497 -121.498631 337 18900ft 277kts
10-Feb-18 22:52 35.978092 -121.534945 332 16861ft 279kts
10-Feb-18 22:53 36.053076 -121.574264 331 14835ft 312kts
10-Feb-18 22:54 36.123466 -121.612205 339 13434ft 332kts
10-Feb-18 22:55 36.198081 -121.657992 330 12707ft 303kts
10-Feb-18 22:56 36.263523 -121.713907 328 11452ft 270kts
10-Feb-18 22:57 36.324752 -121.766569 327 9754ft 270kts
10-Feb-18 22:58 36.386115 -121.819503 324 8059ft 272kts
10-Feb-18 22:59 36.452054 -121.851806 28 6417ft 254kts
10-Feb-18 23:00 36.498438 -121.799794 42 5973ft 211kts
10-Feb-18 23:01 36.542370 -121.745858 42 5430ft 226kts
10-Feb-18 23:02 36.579419 -121.694512 81 4943ft 177kts
10-Feb-18 23:03 36.577187 -121.635990 92 4971ft 164kts
10-Feb-18 23:04 36.573064 -121.580796 121 4965ft 158kts
10-Feb-18 23:05 36.546293 -121.594172 262 4985ft 140kts
10-Feb-18 23:06 36.540921 -121.643266 262 4986ft 151kts
10-Feb-18 23:07 36.542006 -121.696417 283 3823ft 148kts
10-Feb-18 23:08 36.553813 -121.738700 289 2876ft 97kts
10-Feb-18 23:09 36.563005 -121.769633 288 1832ft 96kts
10-Feb-18 23:10 36.572118 -121.800557 296 991ft 96kts
10-Feb-18 23:11 36.582708 -121.831589 292 249ft 97kts
10-Feb-18 23:12 36.590490 -121.854674 294 165ft 22kts
10-Feb-18 23:13 36.589175 -121.857076 257 165ft 7kts
10-Feb-18 23:14 36.588874 -121.857301 176 165ft 0kts
10-Feb-18 23:15 36.588873 -121.857301 177 165ft 0kts
10-Feb-18 23:16 36.588873 -121.857301 177 165ft 0kts
10-Feb-18 23:17 36.588873 -121.857301 177 165ft 0kts
10-Feb-18 23:18 36.588873 -121.857301 177 165ft 0kts
10-Feb-18 23:19 36.588873 -121.857301 177 165ft 0kts
10-Feb-18 23:20 36.588873 -121.857301 177 165ft 0kts
10-Feb-18 23:21 36.588873 -121.857301 177 165ft 0kts
10-Feb-18 23:22 36.588873 -121.857301 177 165ft 0kts
10-Feb-18 23:23 36.588873 -121.857301 177 165ft 0kts
10-Feb-18 23:24 36.588873 -121.857301 177 165ft 0kts
10-Feb-18 23:25 36.588873 -121.857301 177 165ft 0kts
10-Feb-18 23:26 36.588873 -121.857301 177 165ft 0kts

Navigation Log

Ident Type
1. KIZA Airport
2. ORCUT Fix
3. FABEG Fix
4. AVILA Fix
5. MQO Navaid
6. FRAMS Fix
7. CALIS Fix
8. BLANC Fix
9. WONGO Fix
10. BSR Navaid
11. CARME Fix
12. KMRY Airport